Time;durP1;ratioP1;P1;durP2;ratioP2;P2;SDS_P1;SDS_P2;PMS_P1;PMS_P2;Temp;Humidity;BMP_temperature;BMP_pressure;BME280_temperature;BME280_humidity;BME280_pressure;Samples;Min_cycle;Max_cycle;Signal;HPM_P1;HPM_P2
2021/12/14 00:00:47;;;;;;;9.98;5.20;;;9.40;99.90;;;8.03;100.00;101637.25;5071520;28;20538;-86
2021/12/14 00:03:18;;;;;;;7.82;4.90;;;9.50;99.90;;;8.07;100.00;101639.66;5071264;28;20048;-86
2021/12/14 00:05:46;;;;;;;9.77;5.32;;;9.40;99.90;;;8.07;100.00;101643.22;5071421;28;20045;-86
2021/12/14 00:08:15;;;;;;;9.05;4.90;;;9.50;99.90;;;8.06;100.00;101627.97;5071598;28;20578;-86
2021/12/14 00:11:12;;;;;;;10.43;5.78;;;9.50;99.90;;;8.04;100.00;101635.38;5078699;28;20044;-87
2021/12/14 00:13:55;;;;;;;8.38;4.60;;;9.50;99.90;;;8.06;100.00;101627.13;5088539;28;20474;-86
2021/12/14 00:16:24;;;;;;;8.10;4.80;;;9.50;99.90;;;8.05;100.00;101633.53;5091922;28;20040;-86
2021/12/14 00:18:51;;;;;;;8.55;5.22;;;9.50;99.90;;;8.04;100.00;101638.09;5091402;28;20123;-86
2021/12/14 00:21:28;;;;;;;8.38;4.80;;;9.50;99.90;;;8.04;100.00;101632.69;5091574;28;20055;-86
2021/12/14 00:24:10;;;;;;;8.00;5.05;;;9.50;99.90;;;8.05;100.00;101634.38;5091693;28;20051;-86
2021/12/14 00:26:44;;;;;;;6.65;4.20;;;9.50;99.90;;;8.07;100.00;101634.22;5073475;28;20044;-86
2021/12/14 00:29:19;;;;;;;8.15;4.68;;;9.40;99.90;;;8.01;100.00;101630.22;5073251;28;20048;-86
2021/12/14 00:31:47;;;;;;;7.57;4.65;;;9.50;99.90;;;8.01;100.00;101628.41;5079145;28;20075;-86
2021/12/14 00:34:23;;;;;;;9.13;4.63;;;9.40;99.90;;;7.98;100.00;101639.50;5052059;28;20091;-86
2021/12/14 00:36:52;;;;;;;7.00;4.65;;;9.40;99.90;;;8.01;100.00;101641.97;5066146;28;20476;-86
2021/12/14 00:39:20;;;;;;;7.18;4.03;;;9.40;99.90;;;8.00;100.00;101644.81;5076887;28;20124;-86
2021/12/14 00:41:48;;;;;;;7.75;4.80;;;9.40;99.90;;;7.97;100.00;101634.22;5072204;28;20071;-86
2021/12/14 00:44:17;;;;;;;8.05;4.68;;;9.40;99.90;;;7.96;100.00;101627.09;5090649;28;20054;-86
2021/12/14 00:46:45;;;;;;;7.72;4.43;;;9.40;99.90;;;7.97;100.00;101626.94;5091192;28;20082;-87
2021/12/14 00:49:14;;;;;;;7.00;4.88;;;9.40;99.90;;;7.94;100.00;101619.09;5091242;28;20068;-86
2021/12/14 00:51:42;;;;;;;7.47;4.90;;;9.40;99.90;;;7.95;100.00;101630.81;5068808;28;20080;-86
2021/12/14 00:54:14;;;;;;;7.90;4.47;;;9.40;99.90;;;8.01;100.00;101630.22;5072713;28;20044;-86
2021/12/14 00:56:42;;;;;;;7.15;4.55;;;9.40;99.90;;;8.02;100.00;101627.38;5091052;28;20124;-87
2021/12/14 00:59:12;;;;;;;8.27;4.60;;;9.40;99.90;;;8.03;100.00;101623.69;5072791;28;20504;-86
2021/12/14 01:01:48;;;;;;;8.30;4.80;;;9.40;99.90;;;8.08;100.00;101620.53;5071048;28;20055;-87
2021/12/14 01:04:22;;;;;;;7.65;4.30;;;9.40;99.90;;;8.09;100.00;101619.56;5090939;28;20165;-86
2021/12/14 01:06:50;;;;;;;9.68;4.90;;;9.40;99.90;;;8.07;100.00;101613.41;5067064;28;20520;-86
2021/12/14 01:09:24;;;;;;;7.57;4.50;;;9.40;99.90;;;8.02;100.00;101611.13;5072221;28;20102;-86
2021/12/14 01:11:53;;;;;;;7.88;4.45;;;9.40;99.90;;;7.93;100.00;101617.38;5090380;28;20071;-86
2021/12/14 01:14:29;;;;;;;6.45;4.22;;;9.40;99.90;;;7.94;100.00;101620.94;5090342;28;20127;-86
2021/12/14 01:17:10;;;;;;;7.05;4.50;;;9.40;99.90;;;7.91;100.00;101616.66;5090525;28;20126;-86
2021/12/14 01:19:41;;;;;;;7.70;4.43;;;9.40;99.90;;;7.93;100.00;101622.81;5072113;28;20138;-86
2021/12/14 01:22:31;;;;;;;7.78;4.90;;;9.60;99.90;;;7.93;100.00;101611.97;5090571;28;20043;-86
2021/12/14 01:25:08;;;;;;;9.35;5.03;;;9.40;99.90;;;7.97;100.00;101612.53;5082363;28;20048;-86
2021/12/14 01:27:49;;;;;;;9.40;5.07;;;9.40;99.90;;;7.95;100.00;101617.25;5067206;28;20080;-85
2021/12/14 01:30:26;;;;;;;8.73;4.78;;;9.40;99.90;;;7.88;100.00;101603.41;5072186;28;20875;-86
2021/12/14 01:33:00;;;;;;;10.43;5.13;;;9.40;99.90;;;7.87;100.00;101600.84;5071780;28;20046;-86
2021/12/14 01:35:32;;;;;;;7.38;4.70;;;9.40;99.90;;;7.91;100.00;101605.81;5071976;28;20143;-86
2021/12/14 01:38:16;;;;;;;7.70;4.38;;;9.40;99.90;;;7.93;100.00;101617.38;5072113;28;20134;-86
2021/12/14 01:40:55;;;;;;;8.52;4.95;;;9.40;99.90;;;7.91;100.00;101626.66;5056600;28;20053;-86
2021/12/14 01:43:46;;;;;;;7.82;4.85;;;9.40;99.90;;;7.95;100.00;101642.50;5081349;28;20089;-86
2021/12/14 01:46:44;;;;;;;8.55;4.88;;;9.30;99.90;;;7.92;100.00;101663.59;5072110;28;20044;-86
2021/12/14 01:49:33;;;;;;;10.95;4.80;;;9.50;99.90;;;7.92;100.00;101658.19;5089243;28;20152;-86
2021/12/14 01:52:23;;;;;;;9.70;4.72;;;9.40;99.90;;;7.92;100.00;101647.31;5071313;28;20044;-87
2021/12/14 01:54:58;;;;;;;7.97;4.75;;;9.40;99.90;;;7.91;100.00;101656.47;5089918;28;20048;-85
2021/12/14 01:57:32;;;;;;;7.32;4.32;;;9.40;99.90;;;7.87;100.00;101660.47;5077224;28;20044;-86
2021/12/14 02:00:01;;;;;;;7.78;4.43;;;9.40;99.90;;;7.81;100.00;101649.16;5071528;28;20048;-85
2021/12/14 02:02:40;;;;;;;7.35;4.82;;;9.40;99.90;;;7.79;100.00;101640.31;5071332;28;20044;-85
2021/12/14 02:05:18;;;;;;;7.75;4.57;;;9.40;99.90;;;7.87;100.00;101634.22;5071480;28;20044;-85
2021/12/14 02:07:46;;;;;;;9.10;4.75;;;9.40;99.90;;;7.89;100.00;101629.50;5071275;28;20044;-85
2021/12/14 02:10:23;;;;;;;8.38;4.60;;;9.40;99.90;;;7.85;100.00;101632.66;5071492;28;20044;-86
2021/12/14 02:12:51;;;;;;;9.25;4.53;;;9.40;99.90;;;7.88;100.00;101624.22;5066533;28;20051;-85
2021/12/14 02:15:25;;;;;;;9.48;4.93;;;9.40;99.90;;;7.89;100.00;101615.09;5067767;28;20106;-85
2021/12/14 02:17:56;;;;;;;8.38;4.53;;;9.40;99.90;;;7.90;100.00;101611.38;5067879;28;20599;-86
2021/12/14 02:20:30;;;;;;;9.20;5.15;;;9.40;99.90;;;7.82;100.00;101612.97;5067769;28;20052;-86
2021/12/14 02:23:02;;;;;;;8.82;5.05;;;9.40;99.90;;;7.78;100.00;101591.69;5067241;28;20585;-85
2021/12/14 02:25:30;;;;;;;8.27;4.50;;;9.40;99.90;;;7.82;100.00;101594.00;5067630;28;20071;-85
2021/12/14 02:28:05;;;;;;;7.72;4.68;;;9.40;99.90;;;7.85;100.00;101586.56;5051173;28;20412;-85
2021/12/14 02:30:34;;;;;;;8.85;4.63;;;9.40;99.90;;;7.87;100.00;101587.28;5057359;28;20048;-85
2021/12/14 02:33:13;;;;;;;7.60;4.45;;;9.40;99.90;;;7.79;100.00;101583.41;5067044;28;20068;-86
2021/12/14 02:35:41;;;;;;;9.40;5.28;;;9.40;99.90;;;7.82;100.00;101576.84;5067563;28;20053;-86
2021/12/14 02:38:12;;;;;;;9.73;4.82;;;9.40;99.90;;;7.83;100.00;101574.00;5067773;28;20048;-85
2021/12/14 02:40:54;;;;;;;10.38;5.22;;;9.40;99.90;;;7.87;100.00;101579.16;5070832;28;20105;-85
2021/12/14 02:43:35;;;;;;;10.15;5.40;;;9.30;99.90;;;7.72;100.00;101555.16;5070899;28;20051;-85
2021/12/14 02:46:09;;;;;;;8.95;4.80;;;9.40;99.90;;;7.81;100.00;101558.91;5067164;28;20078;-86
2021/12/14 02:48:37;;;;;;;9.75;5.18;;;9.30;99.90;;;7.77;100.00;101542.06;5063908;28;20132;-85
2021/12/14 02:51:14;;;;;;;10.98;5.40;;;9.30;99.90;;;7.81;100.00;101559.75;5030278;28;20067;-85
2021/12/14 02:53:46;;;;;;;8.18;5.22;;;9.30;99.90;;;7.78;100.00;101560.00;5030628;28;20572;-86
2021/12/14 02:56:18;;;;;;;12.50;5.32;;;9.30;99.90;;;7.73;100.00;101562.31;5030608;28;20390;-85
2021/12/14 02:58:47;;;;;;;11.55;5.50;;;9.30;99.90;;;7.74;100.00;101571.28;5030854;28;20056;-85
2021/12/14 03:01:18;;;;;;;9.30;5.32;;;9.30;99.90;;;7.68;100.00;101570.00;5030317;28;20056;-84
2021/12/14 03:03:45;;;;;;;11.27;5.60;;;9.20;99.90;;;7.73;100.00;101562.31;5037911;28;20053;-85
2021/12/14 03:06:21;;;;;;;13.40;5.80;;;9.20;99.90;;;7.73;100.00;101562.31;5070560;28;20044;-85
2021/12/14 03:09:07;;;;;;;12.52;5.63;;;9.20;99.90;;;7.61;100.00;101574.25;5070617;28;20048;-85
2021/12/14 03:11:35;;;;;;;10.95;5.40;;;9.20;99.90;;;7.63;100.00;101556.00;5088511;28;20044;-85
2021/12/14 03:14:03;;;;;;;12.00;5.82;;;9.20;99.90;;;7.68;100.00;101553.72;5088533;28;20044;-85
2021/12/14 03:16:35;;;;;;;12.85;6.30;;;9.30;99.90;;;7.73;100.00;101532.50;5069463;28;20055;-85
2021/12/14 03:19:06;;;;;;;10.80;5.85;;;9.30;99.90;;;7.79;100.00;101534.63;5087742;28;20055;-85
2021/12/14 03:21:39;;;;;;;10.00;5.65;;;9.20;99.90;;;7.79;100.00;101531.09;5056348;28;20136;-85
2021/12/14 03:24:13;;;;;;;9.85;5.82;;;9.50;99.90;;;7.79;100.00;101526.50;5067311;28;20459;-85
2021/12/14 03:26:47;;;;;;;10.00;5.93;;;9.30;99.90;;;7.78;100.00;101534.78;5069482;28;20080;-85
2021/12/14 03:29:19;;;;;;;9.82;5.60;;;9.30;99.90;;;7.82;100.00;101556.06;5071018;28;20071;-85
2021/12/14 03:31:54;;;;;;;10.02;5.50;;;9.30;99.90;;;7.69;100.00;101543.75;5062311;28;20079;-85
2021/12/14 03:34:33;;;;;;;10.13;5.97;;;9.30;99.90;;;7.66;100.00;101544.91;5052897;28;20047;-85
2021/12/14 03:37:09;;;;;;;11.80;5.95;;;9.30;99.90;;;7.61;100.00;101525.47;5052773;28;20587;-85
2021/12/14 03:39:41;;;;;;;10.57;6.10;;;9.30;99.90;;;7.63;100.00;101539.75;5077658;28;20071;-85
2021/12/14 03:42:17;;;;;;;11.25;5.97;;;9.20;99.90;;;7.66;100.00;101538.63;5076273;28;20042;-85
2021/12/14 03:44:49;;;;;;;10.65;6.07;;;9.30;99.90;;;7.72;100.00;101548.91;5072753;28;20059;-85
2021/12/14 03:47:24;;;;;;;13.27;5.93;;;9.30;99.90;;;7.54;100.00;101557.72;5073006;28;20075;-85
2021/12/14 03:49:55;;;;;;;11.98;6.80;;;9.30;99.90;;;7.48;100.00;101558.25;5070311;28;20085;-85
2021/12/14 03:52:27;;;;;;;14.48;5.97;;;9.20;99.90;;;7.58;100.00;101569.13;5063686;28;20044;-85
2021/12/14 03:55:00;;;;;;;9.98;5.95;;;9.30;99.90;;;7.67;100.00;101562.84;5072427;28;20125;-85
2021/12/14 03:57:27;;;;;;;;;;;9.30;99.90;;;7.72;100.00;101563.28;5072978;28;20047;-85
2021/12/14 03:59:57;;;;;;;12.77;6.57;;;9.20;99.90;;;7.73;100.00;101565.03;5072424;28;19957;-85
2021/12/14 04:02:24;;;;;;;13.23;7.30;;;9.20;99.90;;;7.69;100.00;101560.88;5072158;28;20040;-85
2021/12/14 04:05:04;;;;;;;14.48;7.68;;;9.40;99.90;;;7.73;100.00;101558.72;5072319;28;20058;-85
2021/12/14 04:07:37;;;;;;;17.02;8.38;;;9.20;99.90;;;7.74;100.00;101558.59;5072343;28;20040;-86
2021/12/14 04:10:24;;;;;;;19.15;9.77;;;9.20;99.90;;;7.72;100.00;101570.56;5062090;28;20047;-85
2021/12/14 04:12:53;;;;;;;17.92;9.63;;;9.30;99.90;;;7.64;100.00;101573.97;5071973;28;20056;-85
2021/12/14 04:15:22;;;;;;;17.50;9.23;;;9.20;99.90;;;7.64;100.00;101573.97;5033927;28;1114838;-85
2021/12/14 04:17:49;;;;;;;19.77;9.45;;;9.20;99.90;;;7.59;100.00;101570.81;5073541;28;20040;-85
2021/12/14 04:20:22;;;;;;;16.02;9.98;;;9.30;99.90;;;7.62;100.00;101581.41;5073484;28;20147;-85
2021/12/14 04:22:51;;;;;;;19.73;10.35;;;9.20;99.90;;;7.64;100.00;101553.16;5073149;28;20052;-85
2021/12/14 04:25:27;;;;;;;22.33;11.02;;;9.20;99.90;;;7.63;100.00;101561.41;5073369;28;20138;-86
2021/12/14 04:27:56;;;;;;;20.80;11.60;;;9.20;99.90;;;7.54;100.00;101559.53;5073650;28;20051;-85
2021/12/14 04:30:28;;;;;;;22.23;11.52;;;9.20;99.90;;;7.55;100.00;101553.13;5066299;28;20072;-85
2021/12/14 04:33:03;;;;;;;20.08;10.88;;;9.20;99.90;;;7.59;100.00;101565.41;5072034;28;20207;-85
2021/12/14 04:35:34;;;;;;;21.05;11.55;;;9.20;99.90;;;7.62;100.00;101576.81;5051549;28;20102;-85
2021/12/14 04:38:11;;;;;;;20.73;11.68;;;9.20;99.90;;;7.53;100.00;101577.66;5052997;28;20068;-85
2021/12/14 04:52:02;;;;;;;21.77;11.70;;;9.20;99.90;;;7.61;100.00;101579.66;5088256;28;20063;-85
2021/12/14 04:54:39;;;;;;;24.75;11.77;;;9.10;99.90;;;7.57;100.00;101570.09;5072798;28;20043;-85
2021/12/14 04:57:22;;;;;;;23.40;13.23;;;9.10;99.90;;;7.51;100.00;101568.81;5072778;28;20067;-86
2021/12/14 04:59:52;;;;;;;24.52;12.55;;;9.10;99.90;;;7.49;100.00;101580.78;5072761;28;20151;-85
2021/12/14 05:02:24;;;;;;;23.42;13.32;;;9.10;99.90;;;7.45;100.00;101580.22;5072245;28;20048;-84
2021/12/14 05:05:08;;;;;;;23.13;13.35;;;9.10;99.90;;;7.38;100.00;101574.47;5072473;28;20055;-85
2021/12/14 05:07:59;;;;;;;26.75;14.40;;;9.10;99.90;;;7.26;100.00;101575.56;5072383;28;20147;-85
2021/12/14 05:10:25;;;;;;;27.40;13.57;;;9.10;99.90;;;7.34;100.00;101578.44;5072475;28;20089;-85
2021/12/14 05:13:01;;;;;;;27.17;14.10;;;9.20;99.90;;;7.36;100.00;101579.16;5070935;28;20048;-85
2021/12/14 05:15:32;;;;;;;28.02;14.00;;;9.10;99.90;;;7.41;100.00;101579.63;5072283;28;20446;-86
2021/12/14 05:18:00;;;;;;;28.90;14.32;;;9.10;99.90;;;7.37;100.00;101578.19;5090795;28;20101;-86
2021/12/14 05:20:29;;;;;;;30.90;15.43;;;9.10;99.90;;;7.40;100.00;101574.34;5072398;28;20515;-87
2021/12/14 05:23:01;;;;;;;27.77;15.15;;;9.10;99.90;;;7.39;100.00;101576.19;5072015;28;20056;-87
2021/12/14 05:25:29;;;;;;;27.50;15.07;;;9.10;99.90;;;7.38;100.00;101585.28;5072290;28;20673;-86
2021/12/14 05:28:13;;;;;;;25.48;15.00;;;9.20;99.90;;;7.37;100.00;101572.78;5065458;28;20044;-86
2021/12/14 05:30:45;;;;;;;31.83;17.20;;;9.10;99.90;;;7.38;100.00;101569.06;5072225;28;20051;-85
2021/12/14 05:33:27;;;;;;;28.20;15.90;;;9.10;99.90;;;7.40;100.00;101564.34;5058925;28;20044;-83
2021/12/14 05:36:05;;;;;;;30.13;17.75;;;9.00;99.90;;;7.40;100.00;101556.22;5052024;28;20694;-84
2021/12/14 05:38:46;;;;;;;34.17;18.17;;;9.00;99.90;;;7.44;100.00;101560.41;5051478;28;20045;-83
2021/12/14 05:45:07;;;;;;;32.05;16.42;;;9.10;99.90;;;7.42;100.00;101562.38;5022164;28;20124;-84
2021/12/14 05:47:45;;;;;;;33.80;17.70;;;9.10;99.90;;;7.39;100.00;101562.66;5020981;28;20048;-84
2021/12/14 05:50:29;;;;;;;33.55;17.50;;;9.10;99.90;;;7.48;100.00;101568.22;5043702;28;20052;-85
2021/12/14 05:52:57;;;;;;;37.38;18.05;;;9.10;99.90;;;7.40;100.00;101553.50;5051449;28;20539;-83
2021/12/14 05:55:34;;;;;;;29.42;17.02;;;9.00;99.90;;;7.39;100.00;101554.53;5051319;28;20832;-83
2021/12/14 05:58:04;;;;;;;34.75;17.52;;;9.10;99.90;;;7.47;100.00;101542.16;5050213;28;20052;-83
2021/12/14 06:00:35;;;;;;;28.50;16.02;;;9.00;99.90;;;7.55;100.00;101542.31;5050152;28;20145;-82
2021/12/14 06:03:18;;;;;;;32.30;16.90;;;9.00;99.90;;;7.51;100.00;101541.72;5060630;28;20051;-83
2021/12/14 06:05:46;;;;;;;30.80;17.30;;;9.10;99.90;;;7.40;100.00;101550.81;5068076;28;20049;-83
2021/12/14 06:08:25;;;;;;;29.52;17.15;;;9.10;99.90;;;7.47;100.00;101550.28;5060411;28;20063;-83
2021/12/14 06:10:57;;;;;;;28.83;16.95;;;9.10;99.90;;;7.49;100.00;101553.69;5051659;28;20049;-82
2021/12/14 06:13:39;;;;;;;29.45;17.00;;;9.10;99.90;;;7.53;100.00;101560.56;5078139;28;20709;-81
2021/12/14 06:16:09;;;;;;;29.17;16.48;;;9.10;99.90;;;7.46;100.00;101551.25;5045446;28;20515;-82
2021/12/14 06:18:37;;;;;;;25.33;15.43;;;9.10;99.90;;;7.50;100.00;101566.22;5050745;28;20055;-82
2021/12/14 06:21:34;;;;;;;30.45;16.17;;;9.10;99.90;;;7.50;100.00;101577.06;5053980;28;20052;-82
2021/12/14 06:24:05;;;;;;;30.15;16.75;;;9.10;99.90;;;7.50;100.00;101582.47;5050837;28;20056;-82
2021/12/14 06:26:39;;;;;;;27.63;15.93;;;9.10;99.90;;;7.49;100.00;101572.66;5050699;28;20106;-82
2021/12/14 06:29:10;;;;;;;31.85;16.63;;;9.10;99.90;;;7.43;100.00;101569.50;5059631;28;20575;-83
2021/12/14 06:31:41;;;;;;;30.50;16.00;;;9.10;99.90;;;7.34;100.00;101567.63;5069951;28;20059;-82
2021/12/14 06:34:20;;;;;;;25.17;14.68;;;9.10;99.90;;;7.41;100.00;101571.50;5051980;28;20044;-82
2021/12/14 06:38:05;;;;;;;28.20;15.52;;;9.10;99.90;;;7.42;100.00;101570.50;5050186;28;20474;-82
2021/12/14 06:40:37;;;;;;;29.00;15.50;;;9.10;99.90;;;7.41;100.00;101565.22;5052871;28;20043;-82
2021/12/14 06:43:10;;;;;;;32.03;16.13;;;9.10;99.90;;;7.34;100.00;101573.03;5049407;28;20044;-82
2021/12/14 06:45:43;;;;;;;28.17;15.45;;;9.10;99.90;;;7.38;100.00;101573.63;5057776;28;20095;-82
2021/12/14 06:48:20;;;;;;;27.45;15.45;;;9.10;99.90;;;7.43;100.00;101576.78;5059207;28;20132;-82
2021/12/14 06:50:53;;;;;;;30.42;17.02;;;9.10;99.90;;;7.44;100.00;101583.91;5068931;28;20063;-82
2021/12/14 06:53:35;;;;;;;31.25;15.73;;;9.10;99.90;;;7.35;100.00;101588.31;5069824;28;20804;-82
2021/12/14 06:56:28;;;;;;;29.92;16.85;;;9.10;99.90;;;7.24;100.00;101605.50;5060102;28;20580;-82
2021/12/14 06:59:20;;;;;;;27.83;17.08;;;9.10;99.90;;;7.30;100.00;101614.06;5067746;28;20059;-82
2021/12/14 07:02:09;;;;;;;31.80;17.40;;;9.10;99.90;;;7.37;100.00;101624.22;5068551;28;20059;-82
2021/12/14 07:04:50;;;;;;;31.15;17.05;;;9.10;99.90;;;7.29;100.00;101624.06;5057165;28;20062;-82
2021/12/14 07:07:25;;;;;;;29.15;16.65;;;9.10;99.90;;;7.26;100.00;101623.47;5070535;28;20070;-82
2021/12/14 07:09:57;;;;;;;29.75;16.88;;;9.10;99.90;;;7.33;100.00;101617.38;5070327;28;20044;-82
2021/12/14 07:12:30;;;;;;;33.50;17.42;;;9.30;99.90;;;7.41;100.00;101611.28;5080275;28;20079;-82
2021/12/14 07:15:22;;;;;;;32.53;16.75;;;9.10;99.90;;;7.41;100.00;101617.53;5072113;28;20451;-82
2021/12/14 07:18:00;;;;;;;30.17;16.80;;;9.10;99.90;;;7.43;100.00;101622.81;5068783;28;20047;-85
2021/12/14 07:20:33;;;;;;;30.30;17.00;;;9.10;99.90;;;7.51;100.00;101625.69;5068103;28;20048;-85
2021/12/14 07:23:04;;;;;;;29.20;15.98;;;9.10;99.90;;;7.46;100.00;101619.81;5068169;28;20040;-85
2021/12/14 07:25:35;;;;;;;32.67;18.27;;;9.10;99.90;;;7.41;100.00;101622.09;5076586;28;20465;-85
2021/12/14 07:28:08;;;;;;;31.20;18.03;;;9.10;99.90;;;7.35;100.00;101637.03;5084689;28;20032;-85
2021/12/14 07:30:40;;;;;;;33.13;17.63;;;9.10;99.90;;;7.39;100.00;101632.22;5079541;28;20059;-86
2021/12/14 07:33:13;;;;;;;34.25;17.92;;;9.10;99.90;;;7.41;100.00;101643.78;5068520;28;20052;-86
2021/12/14 07:35:50;;;;;;;28.27;16.50;;;9.20;99.90;;;7.43;100.00;101645.34;5078212;28;20044;-85
2021/12/14 07:38:32;;;;;;;27.42;16.35;;;9.10;99.90;;;7.53;100.00;101660.78;5088245;28;20492;-86
2021/12/14 07:41:03;;;;;;;;;;;9.10;99.90;;;7.55;100.00;101670.47;5087946;28;20079;-86
2021/12/14 07:43:36;;;;;;;34.97;18.27;;;9.10;99.90;;;7.56;100.00;101657.81;5088312;28;19924;-85
2021/12/14 07:46:19;;;;;;;33.60;18.55;;;9.10;99.90;;;7.42;100.00;101659.88;5062391;28;20087;-86
2021/12/14 07:48:50;;;;;;;38.28;20.05;;;9.20;99.90;;;7.34;100.00;101661.53;5088391;28;20048;-85
2021/12/14 07:51:22;;;;;;;33.28;18.60;;;9.10;99.90;;;7.37;100.00;101664.84;5087725;28;20063;-86
2021/12/14 07:53:54;;;;;;;31.40;19.08;;;9.10;99.90;;;7.38;100.00;101663.84;5085278;28;20075;-86
2021/12/14 07:56:37;;;;;;;;;;;9.10;99.90;;;7.41;100.00;101666.28;5071492;28;20562;-85
2021/12/14 07:59:18;;;;;;;35.65;20.42;;;9.10;99.90;;;7.43;100.00;101679.69;5071965;28;20032;-86
2021/12/14 08:01:47;;;;;;;38.58;20.52;;;9.10;99.90;;;7.41;100.00;101682.53;5069608;28;20063;-86
2021/12/14 08:04:15;;;;;;;42.38;21.50;;;9.10;99.90;;;7.33;100.00;101679.66;5084003;28;20040;-86
2021/12/14 08:06:56;;;;;;;40.80;22.77;;;9.10;99.90;;;7.39;100.00;101689.94;5087981;28;20075;-85
2021/12/14 08:09:49;;;;;;;40.55;22.08;;;9.10;99.90;;;7.36;100.00;101689.34;5088077;28;20114;-85
2021/12/14 08:12:36;;;;;;;45.17;22.98;;;9.10;99.90;;;7.30;100.00;101696.16;5087916;28;20101;-85
2021/12/14 08:15:14;;;;;;;40.65;22.13;;;9.10;99.90;;;7.39;100.00;101695.34;5073278;28;20055;-85
2021/12/14 08:17:41;;;;;;;38.42;21.45;;;9.10;99.90;;;7.49;100.00;101691.84;5073410;28;20071;-85
2021/12/14 08:20:14;;;;;;;39.88;22.88;;;9.10;99.90;;;7.49;100.00;101711.66;5091966;28;20040;-85
2021/12/14 08:22:44;;;;;;;41.78;22.80;;;9.20;99.90;;;7.46;100.00;101711.06;5091437;28;20044;-86
2021/12/14 08:25:14;;;;;;;43.50;23.33;;;9.20;99.90;;;7.40;100.00;101705.19;5087382;28;20044;-86
2021/12/14 08:27:42;;;;;;;44.47;23.07;;;9.10;99.90;;;7.39;100.00;101703.47;5091913;28;20131;-86
2021/12/14 08:30:15;;;;;;;41.17;21.73;;;9.10;99.90;;;7.42;100.00;101711.34;5082709;28;20050;-87
2021/12/14 08:32:43;;;;;;;42.53;23.48;;;9.10;99.90;;;7.45;100.00;101704.78;5082038;28;20496;-86
2021/12/14 08:35:14;;;;;;;40.83;22.75;;;9.10;99.90;;;7.46;100.00;101701.06;5079181;28;20044;-86
2021/12/14 08:37:50;;;;;;;43.10;23.50;;;9.10;99.90;;;7.43;100.00;101702.22;5091439;28;20076;-85
2021/12/14 08:40:23;;;;;;;43.30;24.90;;;9.10;99.90;;;7.47;100.00;101708.22;5078314;28;20044;-87
2021/12/14 08:43:02;;;;;;;40.03;22.88;;;9.20;99.90;;;7.52;100.00;101699.69;5072775;28;20055;-85
2021/12/14 08:45:36;;;;;;;38.78;22.35;;;9.20;99.90;;;7.49;100.00;101697.25;5087286;28;20071;-83
2021/12/14 08:48:12;;;;;;;38.92;22.10;;;9.20;99.90;;;7.49;100.00;101686.41;5081113;28;20492;-83
2021/12/14 08:50:47;;;;;;;40.55;22.42;;;9.10;99.90;;;7.50;100.00;101698.97;5087889;28;20043;-83
2021/12/14 08:53:16;;;;;;;42.78;22.92;;;9.20;99.90;;;7.49;100.00;101700.81;5090755;28;20149;-83
2021/12/14 08:55:49;;;;;;;40.90;22.83;;;9.20;99.90;;;7.44;100.00;101692.22;5087076;28;20044;-83
2021/12/14 08:58:17;;;;;;;42.50;24.08;;;9.20;99.90;;;7.42;100.00;101689.69;5091329;28;20097;-83
2021/12/14 09:00:49;;;;;;;42.15;23.95;;;9.20;99.90;;;7.39;100.00;101692.66;5091276;28;20452;-83
2021/12/14 09:03:31;;;;;;;41.38;22.30;;;9.20;99.90;;;7.50;100.00;101691.72;5084022;28;20040;-83
2021/12/14 09:05:59;;;;;;;;;;;9.20;99.90;;;7.56;100.00;101690.31;5084687;28;20048;-83
2021/12/14 09:08:28;;;;;;;43.60;22.20;;;9.20;99.90;;;7.55;100.00;101688.59;5070633;28;20034;-83
2021/12/14 09:10:58;;;;;;;43.47;23.48;;;9.20;99.90;;;7.58;100.00;101685.63;5070546;28;20072;-83
2021/12/14 09:13:28;;;;;;;41.10;23.23;;;9.20;99.90;;;7.50;100.00;101701.66;5070478;28;20047;-83
2021/12/14 09:15:59;;;;;;;44.10;23.08;;;9.20;99.90;;;7.43;100.00;101702.22;5082091;28;20126;-83
2021/12/14 09:18:32;;;;;;;41.10;23.67;;;9.30;99.90;;;7.41;100.00;101698.78;5090605;28;20036;-83
2021/12/14 09:21:06;;;;;;;41.97;24.08;;;9.30;99.90;;;7.39;100.00;101708.03;5090426;28;20608;-83
2021/12/14 09:23:39;;;;;;;43.33;24.20;;;9.20;99.90;;;7.40;100.00;101702.47;5088940;28;20044;-83
2021/12/14 09:26:14;;;;;;;40.15;23.17;;;9.20;99.90;;;7.47;100.00;101707.38;5084320;28;20044;-83
2021/12/14 09:28:42;;;;;;;42.20;23.67;;;9.20;99.90;;;7.52;100.00;101705.97;5090609;28;20044;-83
2021/12/14 09:31:16;;;;;;;46.03;24.83;;;9.30;99.90;;;7.57;100.00;101705.56;5085898;28;21024;-83
2021/12/14 09:33:44;;;;;;;48.25;25.40;;;9.30;99.90;;;7.54;100.00;101705.81;5077244;28;20495;-83
2021/12/14 09:36:13;;;;;;;45.88;24.17;;;9.30;99.90;;;7.56;100.00;101707.41;5080389;28;20461;-83
2021/12/14 09:38:47;;;;;;;47.88;26.33;;;9.30;99.90;;;7.65;100.00;101697.59;5070115;28;20039;-83
2021/12/14 09:41:22;;;;;;;44.70;24.60;;;9.30;99.90;;;7.64;100.00;101699.47;5066660;28;20093;-83
2021/12/14 09:43:51;;;;;;;42.15;24.35;;;9.30;99.90;;;7.59;100.00;101703.56;5085569;28;20117;-83
2021/12/14 09:46:20;;;;;;;43.88;24.10;;;9.40;99.90;;;7.63;100.00;101708.59;5070753;28;20040;-83
2021/12/14 09:48:54;;;;;;;39.22;22.02;;;9.40;99.90;;;7.62;100.00;101716.84;5051740;28;20549;-83
2021/12/14 09:51:27;;;;;;;43.67;23.88;;;9.40;99.90;;;7.70;100.00;101714.31;5051270;28;20086;-83
2021/12/14 09:54:01;;;;;;;42.10;23.88;;;9.40;99.90;;;7.73;100.00;101716.75;5069913;28;20063;-83
2021/12/14 09:56:34;;;;;;;39.78;23.13;;;9.40;99.90;;;7.71;100.00;101717.88;5031502;28;20052;-84
2021/12/14 09:59:04;;;;;;;42.30;23.73;;;9.40;99.90;;;7.70;100.00;101719.72;5049575;28;20041;-81
2021/12/14 10:01:36;;;;;;;43.85;23.67;;;9.40;99.90;;;7.67;100.00;101719.13;5072984;28;20557;-81
2021/12/14 10:04:14;;;;;;;43.65;23.95;;;9.40;99.90;;;7.72;100.00;101725.88;5052728;28;20060;-81
2021/12/14 10:06:42;;;;;;;39.00;22.52;;;9.40;99.90;;;7.66;100.00;101712.88;5089972;28;20044;-81
2021/12/14 10:09:21;;;;;;;40.55;22.42;;;9.40;99.90;;;7.69;100.00;101726.16;5079175;28;20048;-82
2021/12/14 10:12:02;;;;;;;40.95;22.08;;;9.40;99.90;;;7.68;100.00;101727.13;5069389;28;20059;-81
2021/12/14 10:14:36;;;;;;;50.37;25.03;;;9.40;99.90;;;7.69;100.00;101722.56;5068231;28;20044;-81
2021/12/14 10:17:08;;;;;;;41.22;22.20;;;9.50;99.90;;;7.77;100.00;101725.47;5085614;28;20049;-82
2021/12/14 10:19:37;;;;;;;42.10;23.67;;;9.50;99.90;;;7.80;100.00;101725.19;5072664;28;20094;-82
2021/12/14 10:22:11;;;;;;;40.38;23.25;;;9.50;99.90;;;7.84;100.00;101715.78;5076505;28;20044;-81
2021/12/14 10:24:40;;;;;;;43.08;24.05;;;9.50;99.90;;;7.91;100.00;101716.09;5080237;28;20094;-81
2021/12/14 10:27:17;;;;;;;40.28;23.60;;;9.50;99.90;;;7.86;100.00;101718.34;5071811;28;20079;-81
2021/12/14 10:29:47;;;;;;;38.60;22.45;;;9.50;99.90;;;7.81;100.00;101710.66;5061172;28;20073;-81
2021/12/14 10:32:20;;;;;;;40.53;22.40;;;9.50;99.90;;;7.82;100.00;101707.81;5078002;28;20071;-82
2021/12/14 10:34:54;;;;;;;38.45;22.08;;;9.50;99.90;;;7.82;100.00;101713.25;5069290;28;20127;-81
2021/12/14 10:37:27;;;;;;;34.50;20.98;;;9.50;99.90;;;7.83;100.00;101714.09;5069390;28;20381;-81
2021/12/14 10:43:12;;;;;;;36.97;21.15;;;9.60;99.90;;;7.76;100.00;101707.50;5088491;28;20048;-81
2021/12/14 10:45:42;;;;;;;34.08;19.63;;;9.60;99.90;;;7.80;100.00;101709.78;5074447;28;20039;-81
2021/12/14 10:48:10;;;;;;;36.80;20.88;;;9.60;99.90;;;7.86;100.00;101711.06;5089097;28;20403;-81
2021/12/14 10:50:39;;;;;;;39.42;21.50;;;9.60;99.90;;;7.96;100.00;101697.59;5089234;28;20131;-82
2021/12/14 10:53:10;;;;;;;34.55;20.35;;;9.60;99.90;;;7.98;100.00;101703.72;5088707;28;20127;-81
2021/12/14 10:55:46;;;;;;;37.95;21.70;;;9.60;99.90;;;7.95;100.00;101706.69;5069257;28;20068;-81
2021/12/14 10:58:17;;;;;;;36.50;20.60;;;9.70;99.90;;;7.91;100.00;101705.25;5048588;28;20512;-81